Time;durP1;ratioP1;P1;durP2;ratioP2;P2;SDS_P1;SDS_P2;PMS_P1;PMS_P2;Temp;Humidity;BMP_temperature;BMP_pressure;BME280_temperature;BME280_humidity;BME280_pressure;Samples;Min_cycle;Max_cycle;Signal;HPM_P1;HPM_P2
2023/10/29 00:07:50;;;;;;;;;;;;;;;12.29;98.69;97635.78;7277751;39;20011;31
2023/10/29 00:18:30;;;;;;;;;;;;;;;12.29;98.21;97633.06;7310352;39;20530;31
2023/10/29 00:24:07;;;;;;;;;;;;;;;12.28;98.80;97636.00;7278192;40;20004;31
2023/10/29 00:29:27;;;;;;;;;;;;;;;12.25;98.48;97617.50;7183120;40;20560;31
2023/10/29 00:35:03;;;;;;;;;;;;;;;12.26;97.94;97605.66;7238163;40;20672;31
2023/10/29 00:40:38;;;;;;;;;;;;;;;12.27;97.85;97600.06;7240178;40;20455;31
2023/10/29 00:46:13;;;;;;;;;;;;;;;12.27;98.47;97600.06;7228061;40;20523;31
2023/10/29 00:51:49;;;;;;;;;;;;;;;12.26;98.08;97594.84;7277829;40;19993;31
2023/10/29 00:57:26;;;;;;;;;;;;;;;12.24;98.22;97595.09;7254421;39;20016;31
2023/10/29 01:03:02;;;;;;;;;;;;;;;12.21;98.10;97598.22;7257538;40;19993;31
2023/10/29 01:08:37;;;;;;;;;;;;;;;12.22;98.26;97585.53;7267347;40;19992;31
2023/10/29 01:14:12;;;;;;;;;;;;;;;12.19;98.35;97578.72;7039871;40;20567;31
2023/10/29 01:19:34;;;;;;;;;;;;;;;12.21;98.75;97552.28;7214339;40;20025;31
2023/10/29 01:24:54;;;;;;;;;;;;;;;12.21;98.56;97546.87;7179023;40;20648;31
2023/10/29 01:30:30;;;;;;;;;;;;;;;12.15;98.71;97540.47;7217765;39;19992;31
2023/10/29 01:35:51;;;;;;;;;;;;;;;12.17;98.08;97529.47;7277884;39;20549;31
2023/10/29 01:41:11;;;;;;;;;;;;;;;12.17;98.32;97514.09;7297014;39;20490;31
2023/10/29 01:46:47;;;;;;;;;;;;;;;12.12;98.08;97521.19;7299162;40;20599;31
2023/10/29 01:52:08;;;;;;;;;;;;;;;12.14;98.58;97505.59;7203746;40;19993;31
2023/10/29 01:57:29;;;;;;;;;;;;;;;12.12;98.77;97499.56;7259735;40;20109;31
2023/10/29 02:03:05;;;;;;;;;;;;;;;12.13;98.21;97496.66;7280356;39;21886;31
2023/10/29 02:08:26;;;;;;;;;;;;;;;12.15;98.25;97502.66;7275233;39;20082;31
2023/10/29 02:19:06;;;;;;;;;;;;;;;12.09;98.44;97498.16;7332424;39;20471;31
2023/10/29 02:24:42;;;;;;;;;;;;;;;12.04;98.24;97480.94;7297705;39;19992;31
2023/10/29 02:30:17;;;;;;;;;;;;;;;11.88;99.00;97490.41;7296033;40;20482;31
2023/10/29 02:40:58;;;;;;;;;;;;;;;11.83;99.45;97500.19;7238892;40;20017;31
2023/10/29 02:51:22;;;;;;;;;;;;;;;11.90;99.38;97506.34;7275353;39;20621;31
2023/10/29 03:07:43;;;;;;;;;;;;;;;11.87;98.85;97518.44;7359449;39;20006;31
2023/10/29 03:13:03;;;;;;;;;;;;;;;11.97;99.15;97523.37;7292813;39;20008;31
2023/10/29 03:18:23;;;;;;;;;;;;;;;11.95;98.24;97515.47;7280040;40;20458;31
2023/10/29 03:23:59;;;;;;;;;;;;;;;11.95;98.15;97520.03;7279911;40;20519;31
2023/10/29 03:34:24;;;;;;;;;;;;;;;11.98;98.16;97525.03;7317525;39;20395;31
2023/10/29 03:45:05;;;;;;;;;;;;;;;11.99;97.58;97515.84;7361447;39;20566;31
2023/10/29 03:55:29;;;;;;;;;;;;;;;11.99;97.91;97515.84;7316433;39;20116;31
2023/10/29 04:06:10;;;;;;;;;;;;;;;12.08;97.18;97536.16;7360594;39;20003;31
2023/10/29 04:16:35;;;;;;;;;;;;;;;12.62;90.65;97512.09;7301156;39;20108;31
2023/10/29 04:27:15;;;;;;;;;;;;;;;12.84;89.32;97530.63;7296852;39;20183;31
2023/10/29 04:32:51;;;;;;;;;;;;;;;12.75;89.46;97524.66;7338713;39;19995;31
2023/10/29 04:38:11;;;;;;;;;;;;;;;12.69;91.11;97538.22;7290430;40;20550;31
2023/10/29 04:43:47;;;;;;;;;;;;;;;12.63;91.52;97546.19;7338488;39;20308;31
2023/10/29 04:49:08;;;;;;;;;;;;;;;12.58;92.33;97518.97;7323101;39;21160;31
2023/10/29 04:54:43;;;;;;;;;;;;;;;12.57;92.83;97517.31;7327595;39;20031;31
2023/10/29 05:00:21;;;;;;;;;;;;;;;12.60;93.16;97505.22;7269797;40;20507;31
2023/10/29 05:05:42;;;;;;;;;;;;;;;12.57;93.56;97519.19;7226850;40;20056;31
2023/10/29 05:11:02;;;;;;;;;;;;;;;12.57;94.05;97525.44;7225356;40;20336;31
2023/10/29 05:16:39;;;;;;;;;;;;;;;12.59;93.42;97539.53;7254819;39;20452;31
2023/10/29 05:22:14;;;;;;;;;;;;;;;12.64;93.48;97547.81;7208829;40;20544;31
2023/10/29 05:27:50;;;;;;;;;;;;;;;12.85;91.58;97537.69;7217303;40;19997;31
2023/10/29 05:33:26;;;;;;;;;;;;;;;13.14;89.71;97534.31;7229398;40;20080;31
2023/10/29 05:38:47;;;;;;;;;;;;;;;13.27;89.43;97536.03;7207122;40;20012;31
2023/10/29 05:44:22;;;;;;;;;;;;;;;13.25;89.50;97525.44;7223367;40;20594;31
2023/10/29 05:49:58;;;;;;;;;;;;;;;13.21;90.69;97531.53;7133527;40;20013;31
2023/10/29 05:55:33;;;;;;;;;;;;;;;13.20;91.35;97544.25;7178930;40;20528;31
2023/10/29 06:01:08;;;;;;;;;;;;;;;13.26;91.74;97570.37;7213252;40;19997;31
2023/10/29 06:06:44;;;;;;;;;;;;;;;13.37;92.44;97590.47;7257466;40;20116;31
2023/10/29 06:17:08;;;;;;;;;;;;;;;13.35;94.66;97608.81;7280997;40;20004;31
2023/10/29 06:27:48;;;;;;;;;;;;;;;13.35;96.64;97650.22;7331130;39;20022;31
2023/10/29 06:33:24;;;;;;;;;;;;;;;13.43;97.06;97665.34;7338322;39;19996;31
2023/10/29 06:38:44;;;;;;;;;;;;;;;13.48;97.90;97679.03;7272051;39;20498;31
2023/10/29 06:44:21;;;;;;;;;;;;;;;13.44;98.53;97678.66;7237866;40;20515;31
2023/10/29 06:49:57;;;;;;;;;;;;;;;13.45;99.17;97669.50;7186646;40;20531;31
2023/10/29 06:55:17;;;;;;;;;;;;;;;13.45;99.61;97677.63;7258493;39;20459;31
2023/10/29 07:00:53;;;;;;;;;;;;;;;13.48;99.54;97677.16;7253849;39;19993;31
2023/10/29 07:06:15;;;;;;;;;;;;;;;13.47;100.00;97683.63;7246576;40;20166;31
2023/10/29 07:11:36;;;;;;;;;;;;;;;13.47;100.00;97675.50;7321888;39;20088;31
2023/10/29 07:17:10;;;;;;;;;;;;;;;13.50;100.00;97671.53;7263788;39;20019;31
2023/10/29 07:22:32;;;;;;;;;;;;;;;13.52;100.00;97659.44;7253179;39;20000;31
2023/10/29 07:33:11;;;;;;;;;;;;;;;13.64;100.00;97646.00;7323573;39;20015;31
2023/10/29 07:38:32;;;;;;;;;;;;;;;13.63;100.00;97652.47;7320783;39;20530;31
2023/10/29 07:44:06;;;;;;;;;;;;;;;13.67;100.00;97650.97;7326105;39;20493;31
2023/10/29 07:49:43;;;;;;;;;;;;;;;13.67;100.00;97650.97;7298513;39;20010;31
2023/10/29 07:55:05;;;;;;;;;;;;;;;13.65;100.00;97650.34;7247420;40;20007;31
2023/10/29 08:00:41;;;;;;;;;;;;;;;13.49;100.00;97662.59;7237522;40;21133;31
2023/10/29 08:06:19;;;;;;;;;;;;;;;13.48;100.00;97650.09;7225034;40;20094;31
2023/10/29 08:11:39;;;;;;;;;;;;;;;13.44;100.00;97672.44;7244741;40;20556;31
2023/10/29 08:16:59;;;;;;;;;;;;;;;13.40;100.00;97680.16;7284469;39;20501;31
2023/10/29 08:27:41;;;;;;;;;;;;;;;13.31;100.00;97659.84;7347017;39;20539;31
2023/10/29 08:33:17;;;;;;;;;;;;;;;13.32;100.00;97668.78;7332477;39;19991;31
2023/10/29 08:38:38;;;;;;;;;;;;;;;13.28;100.00;97671.13;7277568;39;19992;31
2023/10/29 08:44:14;;;;;;;;;;;;;;;13.20;100.00;97681.38;7280883;40;20545;31
2023/10/29 08:49:31;;;;;;;;;;;;;;;13.15;100.00;97657.69;7003507;40;20975;31
2023/10/29 08:54:51;;;;;;;;;;;;;;;13.12;100.00;97658.12;7276999;39;20144;31
2023/10/29 09:00:29;;;;;;;;;;;;;;;13.08;100.00;97649.59;7312188;39;20444;31
2023/10/29 09:05:50;;;;;;;;;;;;;;;12.98;100.00;97675.50;7267920;40;20683;31
2023/10/29 09:11:28;;;;;;;;;;;;;;;12.95;100.00;97668.63;7279102;39;20610;31
2023/10/29 09:17:05;;;;;;;;;;;;;;;12.96;100.00;97664.88;7296652;39;20515;31
2023/10/29 09:22:25;;;;;;;;;;;;;;;13.03;100.00;97698.09;7232707;39;20464;31
2023/10/29 09:33:05;;;;;;;;;;;;;;;13.06;100.00;97669.81;7297230;39;19996;31
2023/10/29 09:43:46;;;;;;;;;;;;;;;13.09;100.00;97681.00;7363747;39;20533;31
2023/10/29 09:49:21;;;;;;;;;;;;;;;13.07;100.00;97676.87;7318462;39;20007;31
2023/10/29 09:54:58;;;;;;;;;;;;;;;13.08;100.00;97678.50;7297557;39;20004;31
2023/10/29 10:05:38;;;;;;;;;;;;;;;12.94;100.00;97690.50;7241748;40;20011;31
2023/10/29 10:11:14;;;;;;;;;;;;;;;12.95;100.00;97651.56;7288473;39;19991;31
2023/10/29 10:16:34;;;;;;;;;;;;;;;13.01;100.00;97658.81;7270774;39;20478;31
2023/10/29 10:27:15;;;;;;;;;;;;;;;13.09;100.00;97664.78;7283039;39;19993;31
2023/10/29 10:32:50;;;;;;;;;;;;;;;13.13;100.00;97664.38;7255112;39;20486;31
2023/10/29 10:43:34;;;;;;;;;;;;;;;13.13;100.00;97665.19;7316533;39;20547;31
2023/10/29 10:49:09;;;;;;;;;;;;;;;13.19;100.00;97661.63;7313800;39;20553;31
2023/10/29 10:54:30;;;;;;;;;;;;;;;13.26;100.00;97651.56;7272429;40;19993;31
2023/10/29 11:00:10;;;;;;;;;;;;;;;13.31;100.00;97634.66;7279413;39;20101;31
2023/10/29 11:05:42;;;;;;;;;;;;;;;13.39;100.00;97616.25;7255726;40;20380;31
2023/10/29 11:11:17;;;;;;;;;;;;;;;13.45;100.00;97609.97;7318481;39;20443;31
2023/10/29 11:17:05;;;;;;;;;;;;;;;13.46;100.00;97603.50;7279954;40;20007;31
2023/10/29 11:22:39;;;;;;;;;;;;;;;13.53;100.00;97619.66;7246204;40;20325;31
2023/10/29 11:28:01;;;;;;;;;;;;;;;13.58;100.00;97608.16;7218287;40;20006;31
2023/10/29 11:33:36;;;;;;;;;;;;;;;13.63;100.00;97606.44;7230873;40;20448;31
2023/10/29 11:39:11;;;;;;;;;;;;;;;13.63;100.00;97606.44;7223048;40;20441;31
2023/10/29 11:44:33;;;;;;;;;;;;;;;13.65;100.00;97600.78;7293336;39;19991;31
2023/10/29 11:50:26;;;;;;;;;;;;;;;13.75;100.00;97595.69;7328026;39;20003;31
2023/10/29 11:56:05;;;;;;;;;;;;;;;13.76;100.00;97603.59;7319978;39;20300;31
2023/10/29 12:01:21;;;;;;;;;;;;;;;13.76;100.00;97600.03;7276024;39;19992;31
2023/10/29 12:06:57;;;;;;;;;;;;;;;13.73;100.00;97608.63;7268824;40;20506;31
2023/10/29 12:12:17;;;;;;;;;;;;;;;13.68;100.00;97603.06;7244574;40;20590;31
2023/10/29 12:22:57;;;;;;;;;;;;;;;13.70;100.00;97596.34;7258427;40;19993;31
2023/10/29 12:33:37;;;;;;;;;;;;;;;13.70;100.00;97592.81;7310689;39;20014;31
2023/10/29 12:39:14;;;;;;;;;;;;;;;13.70;100.00;97585.53;7297935;40;20011;31
2023/10/29 12:44:50;;;;;;;;;;;;;;;13.71;100.00;97597.19;7279160;40;20097;31
2023/10/29 12:50:11;;;;;;;;;;;;;;;13.70;100.00;97606.34;7259005;40;19993;31
2023/10/29 12:55:47;;;;;;;;;;;;;;;13.70;100.00;97600.94;7246577;39;20628;31
2023/10/29 13:01:07;;;;;;;;;;;;;;;13.68;100.00;97597.66;7223624;40;20638;31
2023/10/29 13:11:48;;;;;;;;;;;;;;;13.78;100.00;97579.78;7320951;39;19991;31
2023/10/29 13:17:08;;;;;;;;;;;;;;;13.80;100.00;97598.53;7298663;39;20050;31
2023/10/29 13:22:28;;;;;;;;;;;;;;;13.84;100.00;97559.12;7293890;39;20439;31
2023/10/29 13:28:05;;;;;;;;;;;;;;;13.85;100.00;97522.84;7299547;40;20078;31
2023/10/29 13:33:40;;;;;;;;;;;;;;;13.82;100.00;97515.19;7287733;39;21794;31
2023/10/29 13:44:23;;;;;;;;;;;;;;;13.97;100.00;97494.75;7330270;39;20538;31
2023/10/29 13:49:43;;;;;;;;;;;;;;;13.99;100.00;97492.66;7308865;39;19992;31
2023/10/29 13:55:20;;;;;;;;;;;;;;;13.99;100.00;97494.53;7277515;40;20059;31
2023/10/29 14:00:53;;;;;;;;;;;;;;;14.01;100.00;97497.84;7316504;39;20482;31
2023/10/29 14:06:31;;;;;;;;;;;;;;;14.08;100.00;97497.75;7260526;39;20056;31
2023/10/29 14:12:05;;;;;;;;;;;;;;;14.11;100.00;97471.00;7212709;40;20468;31
2023/10/29 14:17:42;;;;;;;;;;;;;;;14.16;100.00;97464.91;7276995;39;20523;31
2023/10/29 14:23:03;;;;;;;;;;;;;;;14.25;100.00;97467.06;7253672;40;20036;31
2023/10/29 14:28:23;;;;;;;;;;;;;;;14.36;100.00;97458.13;7248005;40;20004;31
2023/10/29 14:39:03;;;;;;;;;;;;;;;14.41;100.00;97441.19;7261778;39;20145;31
2023/10/29 14:49:43;;;;;;;;;;;;;;;14.49;100.00;97438.09;7325609;39;20403;31
2023/10/29 14:55:20;;;;;;;;;;;;;;;14.51;100.00;97435.19;7297276;39;20550;31
2023/10/29 15:05:44;;;;;;;;;;;;;;;14.50;100.00;97485.03;7298389;39;22083;31
2023/10/29 15:11:21;;;;;;;;;;;;;;;14.42;100.00;97616.31;7295690;39;20354;31
2023/10/29 15:21:46;;;;;;;;;;;;;;;14.07;100.00;97596.34;7360777;39;20575;31
2023/10/29 15:32:26;;;;;;;;;;;;;;;13.88;100.00;97622.59;7327096;39;20002;31
2023/10/29 15:38:02;;;;;;;;;;;;;;;13.83;100.00;97639.53;7280506;40;19993;31
2023/10/29 15:43:23;;;;;;;;;;;;;;;13.82;100.00;97656.81;7261872;40;20655;31
2023/10/29 15:54:03;;;;;;;;;;;;;;;13.75;100.00;97676.91;7310821;39;20002;31
2023/10/29 16:04:27;;;;;;;;;;;;;;;13.67;100.00;97653.69;7318539;39;21166;31
2023/10/29 16:10:03;;;;;;;;;;;;;;;13.63;100.00;97689.53;7275229;40;20443;31
2023/10/29 16:15:36;;;;;;;;;;;;;;;13.56;100.00;97665.22;7021896;40;20581;31
2023/10/29 16:21:12;;;;;;;;;;;;;;;13.47;100.00;97683.63;7239622;40;19994;31
2023/10/29 16:26:49;;;;;;;;;;;;;;;13.45;100.00;97679.50;7227533;39;20101;31
2023/10/29 16:32:09;;;;;;;;;;;;;;;13.41;99.64;97692.66;7260343;40;20007;31
2023/10/29 16:37:29;;;;;;;;;;;;;;;13.37;99.01;97713.09;7245519;40;20075;31
2023/10/29 16:43:06;;;;;;;;;;;;;;;13.34;99.12;97705.41;7266763;40;20503;31
2023/10/29 16:48:41;;;;;;;;;;;;;;;13.30;99.37;97697.94;7261160;39;20157;31
2023/10/29 16:59:22;;;;;;;;;;;;;;;13.31;98.69;97703.12;7275143;40;20005;31
2023/10/29 17:04:43;;;;;;;;;;;;;;;13.31;98.10;97719.38;7305592;39;19992;31
2023/10/29 17:10:00;;;;;;;;;;;;;;;13.32;97.68;97755.38;7357340;39;19990;31
2023/10/29 17:15:37;;;;;;;;;;;;;;;13.32;97.79;97779.75;7398542;39;20014;31
2023/10/29 17:26:03;;;;;;;;;;;;;;;13.33;96.43;97795.78;7276447;40;20028;31
2023/10/29 17:31:39;;;;;;;;;;;;;;;13.35;96.02;97804.47;7284630;39;20089;31
2023/10/29 17:37:00;;;;;;;;;;;;;;;13.36;96.50;97825.09;7277017;39;19991;31
2023/10/29 17:42:22;;;;;;;;;;;;;;;13.33;97.15;97843.66;7339380;39;20104;31
2023/10/29 17:47:57;;;;;;;;;;;;;;;13.27;97.66;97839.94;7307433;39;21143;31
2023/10/29 17:58:20;;;;;;;;;;;;;;;13.23;98.33;97864.94;7293021;39;20019;31
2023/10/29 18:03:57;;;;;;;;;;;;;;;13.24;98.54;97875.56;7302989;39;20173;31
2023/10/29 18:09:32;;;;;;;;;;;;;;;13.20;98.99;97874.31;7303219;39;20082;31
2023/10/29 18:14:52;;;;;;;;;;;;;;;13.15;99.60;97867.87;7283133;39;19997;31
2023/10/29 18:20:28;;;;;;;;;;;;;;;13.14;100.00;97861.66;7305870;39;21155;31
2023/10/29 18:26:03;;;;;;;;;;;;;;;13.14;99.98;97866.22;7278981;39;19996;31
2023/10/29 18:31:23;;;;;;;;;;;;;;;13.13;100.00;97851.84;7237392;40;20179;31
2023/10/29 18:36:59;;;;;;;;;;;;;;;13.15;100.00;97849.78;7195548;40;19997;31
2023/10/29 18:42:19;;;;;;;;;;;;;;;13.19;100.00;97875.34;7228345;40;20003;31
2023/10/29 18:47:54;;;;;;;;;;;;;;;13.24;100.00;97855.78;7238043;40;20045;31
2023/10/29 18:53:30;;;;;;;;;;;;;;;13.19;100.00;97869.94;7262070;40;21299;31
2023/10/29 18:59:06;;;;;;;;;;;;;;;13.11;100.00;97863.97;7266206;40;20028;31
2023/10/29 19:04:42;;;;;;;;;;;;;;;13.10;100.00;97868.50;7189551;40;19995;31
2023/10/29 19:10:19;;;;;;;;;;;;;;;13.04;100.00;97877.47;7224080;40;20005;31
2023/10/29 19:20:45;;;;;;;;;;;;;;;13.02;100.00;97871.47;7230656;40;20011;31
2023/10/29 19:26:20;;;;;;;;;;;;;;;12.98;100.00;97862.13;7276640;39;20131;31
2023/10/29 19:31:57;;;;;;;;;;;;;;;12.91;100.00;97859.41;7267636;40;20000;31
2023/10/29 19:37:19;;;;;;;;;;;;;;;12.95;100.00;97897.69;7201342;40;20012;31
2023/10/29 19:42:55;;;;;;;;;;;;;;;12.95;100.00;97922.03;7197317;40;20199;31
2023/10/29 19:48:14;;;;;;;;;;;;;;;12.94;100.00;97907.69;7207494;40;20017;31
2023/10/29 19:53:49;;;;;;;;;;;;;;;12.92;100.00;97907.06;7238450;40;19992;31
2023/10/29 19:59:26;;;;;;;;;;;;;;;12.91;100.00;97907.25;7197682;40;19994;31
2023/10/29 20:05:05;;;;;;;;;;;;;;;12.91;100.00;97935.16;7208029;40;20012;31
2023/10/29 20:10:27;;;;;;;;;;;;;;;12.90;100.00;97925.38;7206839;40;20021;31
2023/10/29 20:16:06;;;;;;;;;;;;;;;12.89;100.00;97941.81;7187467;40;20008;31
2023/10/29 20:21:31;;;;;;;;;;;;;;;12.83;100.00;97927.28;7191875;40;19993;31
2023/10/29 20:26:48;;;;;;;;;;;;;;;12.81;100.00;97918.53;7230917;40;19992;31
2023/10/29 20:32:23;;;;;;;;;;;;;;;12.80;100.00;97943.09;7297190;39;19992;31
2023/10/29 20:38:00;;;;;;;;;;;;;;;12.82;100.00;97930.19;7258253;39;19992;31
2023/10/29 20:43:21;;;;;;;;;;;;;;;12.81;100.00;97948.28;7308844;39;20096;31
2023/10/29 20:48:58;;;;;;;;;;;;;;;12.84;100.00;97950.56;7327167;39;19995;31
2023/10/29 20:54:18;;;;;;;;;;;;;;;12.86;100.00;97963.84;7275211;39;20015;31
2023/10/29 20:59:53;;;;;;;;;;;;;;;12.85;100.00;97971.16;7268489;40;20005;31
2023/10/29 21:05:29;;;;;;;;;;;;;;;12.86;100.00;97961.16;7287249;39;19992;31
2023/10/29 21:10:51;;;;;;;;;;;;;;;12.92;100.00;97958.44;7295445;39;20002;31
2023/10/29 21:16:11;;;;;;;;;;;;;;;12.96;100.00;97966.97;7285248;39;21294;31
2023/10/29 21:21:48;;;;;;;;;;;;;;;13.01;100.00;97989.63;7249101;40;19997;31
2023/10/29 21:27:08;;;;;;;;;;;;;;;13.03;100.00;97940.75;7266554;39;20104;31
2023/10/29 21:38:03;;;;;;;;;;;;;;;13.07;100.00;97966.31;7267522;39;20097;31
2023/10/29 21:48:43;;;;;;;;;;;;;;;13.00;100.00;97936.56;7316446;39;19998;31
2023/10/29 21:54:20;;;;;;;;;;;;;;;12.92;100.00;97935.97;7299313;39;20098;31
2023/10/29 21:59:40;;;;;;;;;;;;;;;12.91;100.00;97948.66;7272644;39;20075;31
2023/10/29 22:05:01;;;;;;;;;;;;;;;12.90;100.00;97965.13;7279868;40;19993;31
2023/10/29 22:10:38;;;;;;;;;;;;;;;12.94;100.00;97947.44;7237099;40;20004;31
2023/10/29 22:16:17;;;;;;;;;;;;;;;12.93;100.00;97991.75;7203801;40;20106;31
2023/10/29 22:21:37;;;;;;;;;;;;;;;12.92;100.00;97982.78;7225280;40;20025;31
2023/10/29 22:27:13;;;;;;;;;;;;;;;12.97;100.00;97971.34;7215267;40;20009;31
2023/10/29 22:32:34;;;;;;;;;;;;;;;12.96;100.00;98010.25;7214623;40;20019;31
2023/10/29 22:43:15;;;;;;;;;;;;;;;12.95;100.00;98051.84;7290877;39;20007;31
2023/10/29 22:53:40;;;;;;;;;;;;;;;12.94;100.00;98052.91;7292587;39;20013;31
2023/10/29 23:04:21;;;;;;;;;;;;;;;12.95;100.00;98020.22;7308077;39;20008;31
2023/10/29 23:09:42;;;;;;;;;;;;;;;12.96;100.00;98012.94;7342106;39;19992;31
2023/10/29 23:15:14;;;;;;;;;;;;;;;12.94;100.00;98033.97;7358699;39;19995;31
2023/10/29 23:20:51;;;;;;;;;;;;;;;12.93;100.00;98075.59;7343324;39;19992;31
2023/10/29 23:26:28;;;;;;;;;;;;;;;12.91;100.00;98072.25;7287923;39;19992;31
2023/10/29 23:31:45;;;;;;;;;;;;;;;12.96;100.00;98056.22;7022008;40;20009;31
2023/10/29 23:37:21;;;;;;;;;;;;;;;12.99;100.00;98042.28;7249596;40;19992;31
2023/10/29 23:42:42;;;;;;;;;;;;;;;12.95;100.00;98068.91;7256684;39;19992;31
2023/10/29 23:48:02;;;;;;;;;;;;;;;12.93;100.00;98073.72;7330682;39;20026;31
2023/10/29 23:53:39;;;;;;;;;;;;;;;12.91;100.00;98072.25;7318840;39;20027;31
2023/10/29 23:59:00;;;;;;;;;;;;;;;12.86;100.00;98078.28;7269274;39;19997;31
